Terminal Aerodrome Forecast
Issued by NWS

Home | Current Version | Previous Version | Text Only | Print | Product List | Glossary On
Versions: 1 2 3 4 5 6 7 8 9 10 11 12 13 14 15 16 17 18 19 20 21 22 23 24 25 26
000
FTUS46 KSGX 201120
TAFSAN
TAF
KSAN 201120Z 2012/2118 VRB04KT P6SM FEW014 BKN025
     FM201400 28009KT P6SM VCSH OVC025
     FM201900 27012G20KT P6SM SCT025 BKN030
     FM210300 28007KT P6SM BKN025
     FM210600 VRB04KT P6SM SCT025=

USA.gov is the U.S. government's official web portal to all federal, state and local government web resources and services.